x

Columbia River Bar - 20nm West Of Columbia River Mouth (46029) Wave Buoy

6:50 - Thu 18th Sep 2014 All times are PDT. -7 hours from GMT.

  • Sig Wave height 5.6ft
  • Swell Direction
  • Peak Period 10s
  • Average Period 9s
  • Wind
    4mph
  • Sea Temp 60°f
  • Aire Temp 61°f
  • Sea Pressure 1013.3mb
  • Columbia River Bar - 20nm West Of Columbia River Mouth
  • Columbia River Bar - 20nm West Of Columbia River Mouth

More Historic Weather Station data

Upgrade to MSW Pro to gain access to the past 30 days of data for over 8000 Wavebouys and Weather Stations around the globe.

Join Pro

Comparision Forecast

View Surf forecast
   
jue 09/18 6:50 5.5ft 10s 9s 4
mph
1013.3mb 60f 61f
5:50 4.5ft 9s 8s 7
mph
1013.1mb 60f 61f
4:50 5ft 11s 9s 7 9 mph 1012.8mb 60f 61f
3:50 5ft 11s 9s 7 9 mph 1012.4mb 60f 61f
2:50 5ft 10s 9s 9
mph
1012.1mb 60f 60f
1:50 5ft 11s 9s 9 11 mph 1011.8mb 59f 60f
12:50 5.5ft 11s 10s 9 11 mph 1011.4mb 59f 60f
11:50 6ft 11s 10s 7
mph
1011.1mb 59f 60f
10:50 5.5ft 11s 9s 9
mph
1010.5mb 59f 60f
9:50 5.5ft 11s 10s 7
mph
1010mb 59f 59f
8:50 5.5ft 11s 10s 7 9 mph 1009.3mb 59f 58f
7:50 5.5ft 11s 10s 7
mph
1008.7mb 59f 58f
6:50 5ft 11s 10s 4 7 mph 1008.1mb 59f 59f
5:50 5.5ft 11s 10s 4
mph
1007.9mb 59f 58f
4:50 5ft 11s 10s 2 4 mph 1007.7mb 59f 59f
3:50 5ft 17s 10s  -  2 mph 1007.5mb 59f 59f
2:50 5.5ft 12s 10s 2
mph
1007.5mb 59f 59f
1:50 5.5ft 12s 10s 2 4 mph 1007.5mb 59f 59f
12:50 5ft 11s 10s 4 7 mph 1007.4mb 59f 59f
mié 09/17 11:50 6ft 12s 10s 2 4 mph 1007.6mb 59f 59f
10:50 5.5ft 11s 10s 2 4 mph 1007.7mb 59f 59f
9:50 6ft 12s 10s 4 7 mph 1007.5mb 59f 59f
8:50 6ft 13s 10s 9 11 mph 1006.9mb 59f 59f
7:50 5.5ft 13s 10s 11
mph
1006.8mb 59f 59f
6:50 6.5ft 12s 10s 9
mph
1007.5mb 59f 60f
5:50 6ft 13s 10s 4 9 mph 1008.4mb 59f 60f
4:50 6ft 12s 10s 2 4 mph 1007.3mb 59f 60f
3:50 6ft 13s 10s 7 9 mph 1007.1mb 59f 60f
2:50 7ft 13s 10s 7 9 mph 1007.2mb 59f 61f
1:50 6ft 13s 10s 7 9 mph 1007.3mb 59f 60f
12:50 6.5ft 14s 10s 2 4 mph 1007.5mb 59f 60f
11:50 6.5ft 13s 10s 7
mph
1007.3mb 59f 60f
10:50 6ft 12s 10s 9 11 mph 1007.1mb 58f 59f
9:50 6ft 13s 10s 4
mph
1007.7mb 58f 59f
8:50 6.5ft 13s 10s 2 4 mph 1007.8mb 58f 58f
7:50 6ft 14s 9s  -  2 mph 1007.6mb 58f 58f
6:50 7ft 14s 10s 2
mph
1007.9mb 58f 58f
5:50 6ft 13s 9s 2
mph
1007.8mb 58f 58f
4:50 7ft 13s 10s 4 7 mph 1008.2mb 58f 58f
3:50 7ft 14s 10s 4 7 mph 1008.7mb 58f 58f
2:50 7ft 14s 10s 4 7 mph 1009.2mb 58f 58f
1:50 6ft 14s 9s 7 9 mph 1009.9mb 58f 58f
12:50 7ft 14s 10s 7 9 mph 1010.6mb 58f 58f
mar 09/16 11:50 6.5ft 14s 9s 4 9 mph 1010.7mb 58f 58f
10:50 6ft 14s 9s 4 7 mph 1010.9mb 58f 59f
9:50 6.5ft 14s 10s 7 9 mph 1011.3mb 59f 59f
8:50 7ft 15s 9s 7 9 mph 1011.4mb 59f 59f
7:50 5.5ft 14s 8s 7 9 mph 1011.3mb 59f 58f
6:50 6.5ft 15s 9s 9 11 mph 1011.3mb 60f 59f
5:50 6.5ft 15s 9s 7 9 mph 1011.7mb 60f 59f
4:50 6ft 15s 9s 7
mph
1012.3mb 60f 60f
3:50 5ft 15s 8s 7 9 mph 1012.7mb 59f 60f
2:50 4.5ft 15s 7s 9 11 mph 1013mb 59f 60f
1:50 5ft 15s 8s 11
mph
1013.2mb 59f 60f
12:50 4.5ft 15s 7s 9 11 mph 1013.2mb 59f 59f
11:50 3.5ft 15s 6s 9 11 mph 1013mb 59f 59f
10:50 3.5ft 15s 6s 9 11 mph 1012.9mb 59f 59f
9:50 3.5ft 15s 5s 11 13 mph 1012.5mb 59f 59f
8:50 3.5ft 15s 5s 13 16 mph 1012.4mb 59f 59f
7:50 4ft 21s 5s 13 16 mph 1012mb 59f 59f
6:50 4ft 21s 5s 16 18 mph 1011.8mb 59f 59f
5:50 4ft 16s 5s 16 18 mph 1011.8mb 59f 59f
4:50 4ft 16s 5s 16 18 mph 1011.7mb 59f 59f
3:50 4ft 16s 5s 16 18 mph 1011.7mb 59f 59f
2:50 4.5ft 16s 5s 18 20 mph 1012mb 59f 59f
1:50 4.5ft 16s 5s 16 20 mph 1011.9mb 59f 58f
12:50 4ft 16s 5s 18 22 mph 1011.8mb 59f 59f
lun 09/15 11:50 4ft 5s 4s 20 22 mph 1011.8mb 59f 59f
10:50 3.5ft 16s 4s 20 22 mph 1011.3mb 59f 59f
9:50 3.5ft 16s 4s 18 22 mph 1010.8mb 59f 59f
8:50 3ft 16s 4s 13 16 mph 1010.4mb 59f 59f
7:50 3ft 16s 5s 16 18 mph 1010mb 59f 58f
6:50 2.5ft 16s 4s 13
mph
1010.3mb 59f 60f
5:50 3ft 21s 5s 16 18 mph 1010.3mb 59f 60f
4:50 2.5ft 16s 6s 16 18 mph 1010mb 60f 60f
3:50 2.5ft 16s 6s 16 18 mph 1009.8mb 60f 60f
2:50 2.5ft 17s 6s 13 16 mph 1009.8mb 60f 58f
1:50 2.5ft 17s 7s 7 9 mph 1009.9mb 59f 56f
12:50 2ft 17s 6s 7 9 mph 1010mb 59f 56f
11:50 2.5ft 17s 7s 4 7 mph 1010.1mb 59f 56f
10:50 2.5ft 7s 6s 7
mph
1009.9mb 59f 57f
9:50 2.5ft 17s 6s 9 11 mph 1009.8mb 59f 58f
8:50 2.5ft 7s 6s 7 9 mph 1009.7mb 59f 58f
7:50 2.5ft 14s 6s 7 9 mph 1009.8mb 58f 57f
6:50 2.5ft 6s 6s 9
mph
1009.7mb 59f 57f
5:50 2.5ft 17s 6s 4 7 mph 1009.4mb 59f 58f
4:50 2.5ft 6s 6s 4
mph
1009.5mb 59f 58f
3:50 2.5ft 19s 6s 2
mph
1009.6mb 59f 59f
2:50 2.5ft 13s 6s 4
mph
1009.7mb 59f 59f